Galt, Canada
Current Conditions -  °F | °C
As of 11:08 PM on Saturday 22 Nov 2014 (Local Time) from CYKF Reporting Station
Light Rain Light Rain  
Wind Chill:   Ceiling: 800
Heat Index:   Visibility: 1.7mi
Dew Point:   Wind: 12mph
Humidity: 93%   Direction: 230°SW
Pressure: 29.93"   Gusts: 21mph
Location:  43.35°N, 80.3°W
Report Text: CYKF 230408Z AUTO 23010G18KT 1 3/4SM -RA BR OVC008 05/04 A2993 RMK SLP144
Loading
Personal Weather Stations






























Interactive Weather Map New forecast layout! Learn more

10-Day Weather Forecast

Advertisements
Track Severe Weather on mobile